createdAt,value
2018-03-06T05:00:34.219Z,2.42
2018-03-06T05:00:59.755Z,2.44
2018-03-06T05:01:25.239Z,2.44
2018-03-06T05:01:50.714Z,2.47
2018-03-06T05:02:16.266Z,2.44
2018-03-06T05:02:41.791Z,2.47
2018-03-06T05:03:07.598Z,2.46
2018-03-06T05:03:33.150Z,2.49
2018-03-06T05:03:58.712Z,2.46
2018-03-06T05:04:24.193Z,2.46
2018-03-06T05:04:49.640Z,2.38
2018-03-06T05:05:15.162Z,2.44
2018-03-06T05:05:40.641Z,2.46
2018-03-06T05:06:06.145Z,2.43
2018-03-06T05:06:31.655Z,2.47
2018-03-06T05:06:57.186Z,2.5
2018-03-06T05:07:22.661Z,2.43
2018-03-06T05:07:48.152Z,2.46
2018-03-06T05:08:13.651Z,2.43
2018-03-06T05:08:39.142Z,2.42
2018-03-06T05:09:04.642Z,2.42
2018-03-06T05:09:30.097Z,2.39
2018-03-06T05:09:55.567Z,2.47
2018-03-06T05:10:21.054Z,2.42
2018-03-06T05:10:46.548Z,2.42
2018-03-06T05:11:12.014Z,2.39
2018-03-06T05:11:37.512Z,2.38
2018-03-06T05:12:02.984Z,2.46
2018-03-06T05:12:28.430Z,2.47
2018-03-06T05:12:53.924Z,2.43
2018-03-06T05:13:19.396Z,2.46
2018-03-06T05:13:44.924Z,2.46
2018-03-06T05:14:10.380Z,2.47
2018-03-06T05:14:35.863Z,2.38
2018-03-06T05:15:01.365Z,2.46
2018-03-06T05:15:26.837Z,2.43
2018-03-06T05:15:52.331Z,2.43
2018-03-06T05:16:17.798Z,2.49
2018-03-06T05:16:43.326Z,2.44
2018-03-06T05:17:08.872Z,2.43
2018-03-06T05:17:34.371Z,2.43
2018-03-06T05:17:59.856Z,2.47
2018-03-06T05:18:25.380Z,2.44
2018-03-06T05:18:50.952Z,2.44
2018-03-06T05:19:16.406Z,2.43
2018-03-06T05:19:41.888Z,2.39
2018-03-06T05:20:07.378Z,2.42
2018-03-06T05:20:32.898Z,2.38
2018-03-06T05:20:58.349Z,2.43
2018-03-06T05:21:23.825Z,2.38
2018-03-06T05:21:49.347Z,2.38
2018-03-06T05:22:14.825Z,2.39
2018-03-06T05:22:40.355Z,2.42
2018-03-06T05:23:05.887Z,2.38
2018-03-06T05:23:31.426Z,2.38
2018-03-06T05:23:56.920Z,2.31
2018-03-06T05:24:22.410Z,2.28
2018-03-06T05:24:47.960Z,2.35
2018-03-06T05:25:13.461Z,2.32
2018-03-06T05:25:38.975Z,2.28
2018-03-06T05:26:04.506Z,2.32
2018-03-06T05:26:29.975Z,2.42
2018-03-06T05:26:55.451Z,2.36
2018-03-06T05:27:20.943Z,2.31
2018-03-06T05:27:46.502Z,2.36
2018-03-06T05:28:11.943Z,2.33
2018-03-06T05:28:37.494Z,2.31
2018-03-06T05:29:02.989Z,2.31
2018-03-06T05:29:28.449Z,2.32
2018-03-06T05:29:53.974Z,2.29
2018-03-06T05:30:19.457Z,2.33
2018-03-06T05:30:44.975Z,2.29
2018-03-06T05:31:10.470Z,2.32
2018-03-06T05:31:35.948Z,2.33
2018-03-06T05:32:01.439Z,2.28
2018-03-06T05:32:26.884Z,2.28
2018-03-06T05:32:52.428Z,2.29
2018-03-06T05:33:17.951Z,2.33
2018-03-06T05:33:43.399Z,2.31
2018-03-06T05:34:08.881Z,2.33
2018-03-06T05:34:34.372Z,2.31
2018-03-06T05:34:59.874Z,2.42
2018-03-06T05:35:25.410Z,2.33
2018-03-06T05:35:50.906Z,2.35
2018-03-06T05:36:16.521Z,2.35
2018-03-06T05:36:42.071Z,2.38
2018-03-06T05:37:07.717Z,2.29
2018-03-06T05:37:33.292Z,2.42
2018-03-06T05:37:58.786Z,2.31
2018-03-06T05:38:24.300Z,2.38
2018-03-06T05:38:49.852Z,2.33
2018-03-06T05:39:15.370Z,2.33
2018-03-06T05:39:40.845Z,2.26
2018-03-06T05:40:06.323Z,2.35
2018-03-06T05:40:31.779Z,2.35
2018-03-06T05:40:57.293Z,2.29
2018-03-06T05:41:22.878Z,2.39
2018-03-06T05:41:48.380Z,2.35
2018-03-06T05:42:13.896Z,2.32
2018-03-06T05:42:39.444Z,2.39
2018-03-06T05:43:04.977Z,2.36
2018-03-06T05:43:30.478Z,2.29
2018-03-06T05:43:56.064Z,2.39
2018-03-06T05:44:21.641Z,2.25
2018-03-06T05:44:47.100Z,2.26
2018-03-06T05:45:12.653Z,2.35
2018-03-06T05:45:38.121Z,2.38
2018-03-06T05:46:03.591Z,2.42
2018-03-06T05:46:29.069Z,2.36
2018-03-06T05:46:54.602Z,2.32
2018-03-06T05:47:20.089Z,2.28
2018-03-06T05:47:45.522Z,2.38
2018-03-06T05:48:11.043Z,2.35
2018-03-06T05:48:36.615Z,2.35
2018-03-06T05:49:02.152Z,2.26
2018-03-06T05:49:27.619Z,2.32
2018-03-06T05:49:53.126Z,2.26
2018-03-06T05:50:18.898Z,2.36
2018-03-06T05:50:44.388Z,2.35
2018-03-06T05:51:09.911Z,2.35
2018-03-06T05:51:35.432Z,2.33
2018-03-06T05:52:00.995Z,2.26
2018-03-06T05:52:26.606Z,2.28
2018-03-06T05:52:52.380Z,2.35
2018-03-06T05:53:17.910Z,2.28
2018-03-06T05:53:43.504Z,2.35
2018-03-06T05:54:09.092Z,2.18
2018-03-06T05:54:34.553Z,2.26
2018-03-06T05:55:00.158Z,2.29
2018-03-06T05:55:25.774Z,2.25
2018-03-06T05:55:51.208Z,2.15
2018-03-06T05:56:16.638Z,2.22
2018-03-06T05:56:42.184Z,2.26
2018-03-06T05:57:07.625Z,2.24
2018-03-06T05:57:33.079Z,2.24
2018-03-06T05:57:58.543Z,2.24
2018-03-06T05:58:24.017Z,2.24
2018-03-06T05:58:49.514Z,2.22
2018-03-06T05:59:14.956Z,2.2
2018-03-06T05:59:40.425Z,2.17
2018-03-06T06:00:05.863Z,2.18
2018-03-06T06:00:31.381Z,2.28
2018-03-06T06:00:56.766Z,2.17
2018-03-06T06:01:22.311Z,2.14
2018-03-06T06:01:47.729Z,2.17
2018-03-06T06:02:13.203Z,2.28
2018-03-06T06:02:38.742Z,2.2
2018-03-06T06:03:04.148Z,2.22
2018-03-06T06:03:29.626Z,2.24
2018-03-06T06:03:55.123Z,2.22
2018-03-06T06:04:20.627Z,2.28
2018-03-06T06:04:46.032Z,2.2
2018-03-06T06:05:11.499Z,2.2
2018-03-06T06:05:36.973Z,2.15
2018-03-06T06:06:02.483Z,2.26
2018-03-06T06:06:27.958Z,2.2
2018-03-06T06:06:53.406Z,2.2
2018-03-06T06:07:18.941Z,2.28
2018-03-06T06:07:44.338Z,2.31
2018-03-06T06:08:09.862Z,2.26
2018-03-06T06:08:35.302Z,2.29
2018-03-06T06:09:00.721Z,2.26
2018-03-06T06:09:26.198Z,2.32
2018-03-06T06:09:51.719Z,2.33
2018-03-06T06:10:17.258Z,2.38
2018-03-06T06:10:42.731Z,2.33
2018-03-06T06:11:08.207Z,2.33
2018-03-06T06:11:33.680Z,2.31
2018-03-06T06:11:59.196Z,2.39
2018-03-06T06:12:24.695Z,2.35
2018-03-06T06:12:50.149Z,2.33
2018-03-06T06:13:15.625Z,2.35
2018-03-06T06:13:41.150Z,2.38
2018-03-06T06:14:06.599Z,2.33
2018-03-06T06:14:32.146Z,2.29
2018-03-06T06:14:57.642Z,2.33
2018-03-06T06:15:23.118Z,2.29
2018-03-06T06:15:48.561Z,2.28
2018-03-06T06:16:14.054Z,2.28
2018-03-06T06:16:39.557Z,2.31
2018-03-06T06:17:05.036Z,2.32
2018-03-06T06:17:30.558Z,2.42
2018-03-06T06:17:56.052Z,2.42
2018-03-06T06:18:21.622Z,2.44
2018-03-06T06:18:47.191Z,2.38
2018-03-06T06:19:12.757Z,2.43
2018-03-06T06:19:38.237Z,2.44
2018-03-06T06:20:03.731Z,2.46
2018-03-06T06:20:29.198Z,2.39
2018-03-06T06:20:54.698Z,2.53
2018-03-06T06:21:20.206Z,2.57
2018-03-06T06:21:45.725Z,2.51
2018-03-06T06:22:11.182Z,2.57
2018-03-06T06:22:36.657Z,2.53
2018-03-06T06:23:02.116Z,2.54
2018-03-06T06:23:27.636Z,2.56
2018-03-06T06:23:53.124Z,2.64
2018-03-06T06:24:18.563Z,2.64
2018-03-06T06:24:44.052Z,2.61
2018-03-06T06:25:09.555Z,2.69
2018-03-06T06:25:35.051Z,2.61
2018-03-06T06:26:00.513Z,2.71
2018-03-06T06:26:26.063Z,2.67
2018-03-06T06:26:51.473Z,2.64
2018-03-06T06:27:16.983Z,2.65
2018-03-06T06:27:42.479Z,2.65
2018-03-06T06:28:07.970Z,2.62
2018-03-06T06:28:33.539Z,2.64
2018-03-06T06:28:59.042Z,2.62
2018-03-06T06:29:24.530Z,2.68
2018-03-06T06:29:49.999Z,2.61
2018-03-06T06:30:15.474Z,2.61
2018-03-06T06:31:03.811Z,2.65
2018-03-06T06:31:29.296Z,2.68
2018-03-06T06:31:54.766Z,2.57
2018-03-06T06:32:20.283Z,2.67
2018-03-06T06:32:45.767Z,2.6
2018-03-06T06:33:11.269Z,2.64
2018-03-06T06:33:36.872Z,2.65
2018-03-06T06:34:02.373Z,2.68
2018-03-06T06:34:27.845Z,2.61
2018-03-06T06:34:53.324Z,2.65
2018-03-06T06:35:18.824Z,2.61
2018-03-06T06:35:44.341Z,2.67
2018-03-06T06:36:09.787Z,2.67
2018-03-06T06:36:35.290Z,2.67
2018-03-06T06:37:00.800Z,2.68
2018-03-06T06:37:26.316Z,2.61
2018-03-06T06:37:51.757Z,2.71
2018-03-06T06:38:17.293Z,2.65
2018-03-06T06:38:42.782Z,2.67
2018-03-06T06:39:08.350Z,2.61
2018-03-06T06:39:33.924Z,2.56
2018-03-06T06:39:59.399Z,2.67
2018-03-06T06:40:25.154Z,2.6
2018-03-06T06:40:50.707Z,2.64
2018-03-06T06:41:16.184Z,2.57
2018-03-06T06:41:41.670Z,2.56
2018-03-06T06:42:07.224Z,2.62
2018-03-06T06:42:32.735Z,2.65
2018-03-06T06:42:58.212Z,2.65
2018-03-06T06:43:23.733Z,2.68
2018-03-06T06:43:49.230Z,2.65
2018-03-06T06:44:14.695Z,2.67
2018-03-06T06:44:40.153Z,2.65
2018-03-06T06:45:05.603Z,2.57
2018-03-06T06:45:31.097Z,2.68
2018-03-06T06:45:56.562Z,2.75
2018-03-06T06:46:22.009Z,2.75
2018-03-06T06:46:47.479Z,2.71
2018-03-06T06:47:13.114Z,2.69
2018-03-06T06:47:38.492Z,2.69
2018-03-06T06:48:03.999Z,2.72
2018-03-06T06:48:29.471Z,2.77
2018-03-06T06:48:54.937Z,2.71
2018-03-06T06:49:20.433Z,2.82
2018-03-06T06:49:45.923Z,2.79
2018-03-06T06:50:11.418Z,2.87
2018-03-06T06:50:36.962Z,2.83
2018-03-06T06:51:02.473Z,2.85
2018-03-06T06:51:28.025Z,2.89
2018-03-06T06:51:53.630Z,2.9
2018-03-06T06:52:19.081Z,2.9
2018-03-06T06:52:44.571Z,2.9
2018-03-06T06:53:10.105Z,2.93
2018-03-06T06:53:35.534Z,2.98
2018-03-06T06:54:01.064Z,3.01
2018-03-06T06:54:26.563Z,3.07
2018-03-06T06:54:52.037Z,3.05
2018-03-06T06:55:17.519Z,3.05
2018-03-06T06:55:43.010Z,3.1
2018-03-06T06:56:08.492Z,3.08
2018-03-06T06:56:33.988Z,3.13
2018-03-06T06:56:59.451Z,3.18
2018-03-06T06:57:24.963Z,3.07
2018-03-06T06:57:50.475Z,3.05
2018-03-06T06:58:15.993Z,3.11
2018-03-06T06:58:41.477Z,3.23
2018-03-06T06:59:06.918Z,3.22
2018-03-06T06:59:32.576Z,3.21
2018-03-06T06:59:58.043Z,3.16
2018-03-06T07:00:23.549Z,3.13
2018-03-06T07:00:49.041Z,3.19
2018-03-06T07:01:14.517Z,3.13
2018-03-06T07:01:39.999Z,3.14
2018-03-06T07:02:05.502Z,3.16
2018-03-06T07:02:30.989Z,3.13
2018-03-06T07:02:56.504Z,3.23
2018-03-06T07:03:21.964Z,3.22
2018-03-06T07:03:47.414Z,3.19
2018-03-06T07:04:12.870Z,3.32
2018-03-06T07:04:38.403Z,3.22
2018-03-06T07:05:03.860Z,3.22
2018-03-06T07:05:29.356Z,3.19
2018-03-06T07:05:54.850Z,3.28
2018-03-06T07:06:20.314Z,3.19
2018-03-06T07:06:45.768Z,3.23
2018-03-06T07:07:11.267Z,3.22
2018-03-06T07:07:36.743Z,3.25
2018-03-06T07:08:02.235Z,3.13
2018-03-06T07:08:27.685Z,3.25
2018-03-06T07:08:53.130Z,3.1
2018-03-06T07:09:18.651Z,3.23
2018-03-06T07:09:44.135Z,3.23
2018-03-06T07:10:09.626Z,3.31
2018-03-06T07:10:35.117Z,3.26
2018-03-06T07:11:00.617Z,3.25
2018-03-06T07:11:26.116Z,3.28
2018-03-06T07:11:51.567Z,3.28
2018-03-06T07:12:17.025Z,3.23
2018-03-06T07:12:42.514Z,3.28
2018-03-06T07:13:08.028Z,3.29
2018-03-06T07:13:33.466Z,3.36
2018-03-06T07:13:58.878Z,3.36
2018-03-06T07:14:24.392Z,3.37
2018-03-06T07:14:49.880Z,3.4
2018-03-06T07:15:15.380Z,3.37
2018-03-06T07:15:40.888Z,3.42
2018-03-06T07:16:06.311Z,3.41
2018-03-06T07:16:31.807Z,3.42
2018-03-06T07:16:57.313Z,3.42
2018-03-06T07:17:22.763Z,3.41
2018-03-06T07:17:48.234Z,3.5
2018-03-06T07:18:13.675Z,3.51
2018-03-06T07:18:39.199Z,3.5
2018-03-06T07:19:04.617Z,3.48
2018-03-06T07:19:30.095Z,3.55
2018-03-06T07:19:55.561Z,3.55
2018-03-06T07:20:21.104Z,3.51
2018-03-06T07:20:46.683Z,3.63
2018-03-06T07:21:12.116Z,3.53
2018-03-06T07:21:37.574Z,3.59
2018-03-06T07:22:03.102Z,3.6
2018-03-06T07:22:28.545Z,3.63
2018-03-06T07:22:54.008Z,3.62
2018-03-06T07:23:19.462Z,3.6
2018-03-06T07:23:44.981Z,3.62
2018-03-06T07:24:10.424Z,3.65
2018-03-06T07:24:35.896Z,3.73
2018-03-06T07:25:01.399Z,3.74
2018-03-06T07:25:26.922Z,3.73
2018-03-06T07:25:52.425Z,3.74
2018-03-06T07:26:17.922Z,3.7
2018-03-06T07:26:43.426Z,3.8
2018-03-06T07:27:08.918Z,3.8
2018-03-06T07:27:34.395Z,3.83
2018-03-06T07:28:33.910Z,3.84
2018-03-06T07:28:59.425Z,3.94
2018-03-06T07:29:24.980Z,3.99
2018-03-06T07:29:50.412Z,3.96
2018-03-06T07:30:15.896Z,3.99
2018-03-06T07:30:41.327Z,4.04
2018-03-06T07:31:06.787Z,3.98
2018-03-06T07:31:32.241Z,3.98
2018-03-06T07:31:57.691Z,4.05
2018-03-06T07:32:23.171Z,4.06
2018-03-06T07:32:48.640Z,4.05
2018-03-06T07:33:14.136Z,4.16
2018-03-06T07:33:39.618Z,4.12
2018-03-06T07:34:05.116Z,4.13
2018-03-06T07:34:53.427Z,4.19
2018-03-06T07:35:18.932Z,4.14
2018-03-06T07:35:44.431Z,4.1
2018-03-06T07:36:09.900Z,4.2
2018-03-06T07:36:35.394Z,4.19
2018-03-06T07:37:00.906Z,4.24
2018-03-06T07:37:26.463Z,4.22
2018-03-06T07:37:51.930Z,4.2
2018-03-06T07:38:17.442Z,4.19
2018-03-06T07:38:42.907Z,4.2
2018-03-06T07:39:08.451Z,4.32
2018-03-06T07:39:33.913Z,4.24
2018-03-06T07:39:59.402Z,4.28
2018-03-06T07:40:24.847Z,4.42
2018-03-06T07:40:50.325Z,4.38
2018-03-06T07:41:15.797Z,4.31
2018-03-06T07:41:41.329Z,4.45
2018-03-06T07:42:06.833Z,4.44
2018-03-06T07:42:32.298Z,4.42
2018-03-06T07:42:57.766Z,4.34
2018-03-06T07:43:23.341Z,4.42
2018-03-06T07:43:48.850Z,4.45
2018-03-06T07:44:14.373Z,4.4
2018-03-06T07:44:39.879Z,4.4
2018-03-06T07:45:05.397Z,4.35
2018-03-06T07:45:30.857Z,4.45
2018-03-06T07:45:56.333Z,4.48
2018-03-06T07:46:21.824Z,4.4
2018-03-06T07:46:47.342Z,4.44
2018-03-06T07:47:12.840Z,4.49
2018-03-06T07:47:38.296Z,4.53
2018-03-06T07:48:03.787Z,4.45
2018-03-06T07:48:29.296Z,4.45
2018-03-06T07:48:54.774Z,4.41
2018-03-06T07:49:20.329Z,4.52
2018-03-06T07:49:45.757Z,4.55
2018-03-06T07:50:11.290Z,4.49
2018-03-06T07:50:36.797Z,4.45
2018-03-06T07:51:02.285Z,4.42
2018-03-06T07:51:27.786Z,4.49
2018-03-06T07:51:53.310Z,4.42
2018-03-06T07:52:18.803Z,4.4
2018-03-06T07:52:44.332Z,4.44
2018-03-06T07:53:09.819Z,4.41
2018-03-06T07:53:35.305Z,4.44
2018-03-06T07:54:00.830Z,4.49
2018-03-06T07:54:26.310Z,4.42
2018-03-06T07:54:51.784Z,4.41
2018-03-06T07:55:17.242Z,4.49
2018-03-06T07:55:42.721Z,4.52
2018-03-06T07:56:08.211Z,4.45
2018-03-06T07:56:33.689Z,4.49
2018-03-06T07:56:59.138Z,4.48
2018-03-06T07:57:24.599Z,4.49
2018-03-06T07:57:50.084Z,4.52
2018-03-06T07:58:15.592Z,4.55
2018-03-06T07:58:41.094Z,4.48
2018-03-06T07:59:06.604Z,4.49
2018-03-06T07:59:32.068Z,4.5
2018-03-06T07:59:57.541Z,4.45
2018-03-06T08:00:23.027Z,4.5
2018-03-06T08:00:48.547Z,4.53
2018-03-06T08:01:14.014Z,4.53
2018-03-06T08:01:39.500Z,4.5
2018-03-06T08:02:05.005Z,4.55
2018-03-06T08:02:30.530Z,4.5
2018-03-06T08:02:55.983Z,4.5
2018-03-06T08:03:21.435Z,4.53
2018-03-06T08:03:46.902Z,4.5
2018-03-06T08:04:12.411Z,4.49
2018-03-06T08:04:37.877Z,4.5
2018-03-06T08:05:03.357Z,4.49
2018-03-06T08:05:28.854Z,4.56
2018-03-06T08:05:54.333Z,4.5
2018-03-06T08:06:19.837Z,4.56
2018-03-06T08:06:45.346Z,4.5
2018-03-06T08:07:10.855Z,4.52
2018-03-06T08:07:36.318Z,4.56
2018-03-06T08:08:01.865Z,4.5
2018-03-06T08:08:55.296Z,4.66
2018-03-06T08:09:20.765Z,4.62
2018-03-06T08:09:46.281Z,4.68
2018-03-06T08:10:11.745Z,4.6
2018-03-06T08:10:37.211Z,4.67
2018-03-06T08:11:02.656Z,4.68
2018-03-06T08:11:28.151Z,4.67
2018-03-06T08:11:53.631Z,4.73
2018-03-06T08:12:19.053Z,4.73
2018-03-06T08:12:44.551Z,4.7
2018-03-06T08:13:09.984Z,4.71
2018-03-06T08:13:35.457Z,4.73
2018-03-06T08:14:00.974Z,4.74
2018-03-06T08:14:26.483Z,4.68
2018-03-06T08:14:52.006Z,4.73
2018-03-06T08:15:55.637Z,4.78
2018-03-06T08:16:21.128Z,4.77
2018-03-06T08:16:46.613Z,4.75
2018-03-06T08:17:12.082Z,4.86
2018-03-06T08:17:37.580Z,4.8
2018-03-06T08:18:03.067Z,4.82
2018-03-06T08:18:28.579Z,4.78
2018-03-06T08:18:54.080Z,4.84
2018-03-06T08:19:19.659Z,4.78
2018-03-06T08:19:45.127Z,4.9
2018-03-06T08:20:10.618Z,4.82
2018-03-06T08:20:36.111Z,4.68
2018-03-06T08:21:01.555Z,4.86
2018-03-06T08:21:27.065Z,4.9
2018-03-06T08:21:52.519Z,4.82
2018-03-06T08:22:18.015Z,4.87
2018-03-06T08:22:43.466Z,4.9
2018-03-06T08:23:09.004Z,4.9
2018-03-06T08:23:34.510Z,4.96
2018-03-06T08:24:00.020Z,4.94
2018-03-06T08:24:25.486Z,4.9
2018-03-06T08:24:50.972Z,4.9
2018-03-06T08:25:16.491Z,4.97
2018-03-06T08:25:41.975Z,5
2018-03-06T08:26:07.488Z,5
2018-03-06T08:26:32.956Z,4.97
2018-03-06T08:26:58.435Z,5
2018-03-06T08:27:23.942Z,5.04
2018-03-06T08:27:49.374Z,5.05
2018-03-06T08:28:14.878Z,5.14
2018-03-06T08:28:40.373Z,5.11
2018-03-06T08:29:05.847Z,5.17
2018-03-06T08:29:31.324Z,5.2
2018-03-06T08:29:56.873Z,5.15
2018-03-06T08:30:22.364Z,5.28
2018-03-06T08:30:47.874Z,5.25
2018-03-06T08:31:13.412Z,5.26
2018-03-06T08:31:38.931Z,5.38
2018-03-06T08:32:04.427Z,5.35
2018-03-06T08:32:29.926Z,5.28
2018-03-06T08:32:55.447Z,5.39
2018-03-06T08:33:20.946Z,5.35
2018-03-06T08:33:46.433Z,5.38
2018-03-06T08:34:55.134Z,5.38
2018-03-06T08:35:20.623Z,5.43
2018-03-06T08:35:46.084Z,5.47
2018-03-06T08:36:11.558Z,5.54
2018-03-06T08:36:37.086Z,5.57
2018-03-06T08:37:02.566Z,5.56
2018-03-06T08:37:28.047Z,5.51
2018-03-06T08:37:53.578Z,5.56
2018-03-06T08:38:19.058Z,5.59
2018-03-06T08:38:44.554Z,5.68
2018-03-06T08:39:53.210Z,5.65
2018-03-06T08:40:18.728Z,5.69
2018-03-06T08:40:44.209Z,5.73
2018-03-06T08:41:09.757Z,5.79
2018-03-06T08:41:35.235Z,5.75
2018-03-06T08:42:00.742Z,5.83
2018-03-06T08:42:26.198Z,5.84
2018-03-06T08:42:51.750Z,5.84
2018-03-06T08:43:17.226Z,5.8
2018-03-06T08:43:42.711Z,5.91
2018-03-06T08:44:08.241Z,5.97
2018-03-06T08:44:33.771Z,5.99
2018-03-06T08:44:59.269Z,5.98
2018-03-06T08:45:24.761Z,6.02
2018-03-06T08:45:50.245Z,6.07
2018-03-06T08:46:15.701Z,6.09
2018-03-06T08:46:41.172Z,6.07
2018-03-06T08:47:06.672Z,6.07
2018-03-06T08:47:32.162Z,6.17
2018-03-06T08:47:57.669Z,6.11
2018-03-06T08:48:23.225Z,6.11
2018-03-06T08:48:48.716Z,6.17
2018-03-06T08:49:14.266Z,6.27
2018-03-06T08:49:39.774Z,6.26
2018-03-06T08:50:05.242Z,6.26
2018-03-06T08:50:58.659Z,6.28
2018-03-06T08:51:24.201Z,6.31
2018-03-06T08:51:49.706Z,6.39
2018-03-06T08:52:15.146Z,6.42
2018-03-06T08:52:40.657Z,6.35
2018-03-06T08:53:06.113Z,6.42
2018-03-06T08:53:31.627Z,6.41
2018-03-06T08:54:40.331Z,6.44
2018-03-06T08:55:05.846Z,6.46
2018-03-06T08:55:31.398Z,6.51
2018-03-06T08:55:56.802Z,6.52
2018-03-06T08:56:22.312Z,6.49
2018-03-06T08:56:47.845Z,6.48
2018-03-06T08:57:13.429Z,6.57
2018-03-06T08:57:38.923Z,6.62
2018-03-06T08:58:04.388Z,6.66
2018-03-06T08:58:29.893Z,6.69
2018-03-06T08:58:55.370Z,6.79
2018-03-06T08:59:20.904Z,6.77
2018-03-06T08:59:46.318Z,6.79
2018-03-06T09:00:11.978Z,6.84
2018-03-06T09:00:37.479Z,6.78
2018-03-06T09:01:02.949Z,6.85
2018-03-06T09:01:28.454Z,6.81
2018-03-06T09:01:54.022Z,6.88
2018-03-06T09:02:19.489Z,6.95
2018-03-06T09:02:44.976Z,6.92
2018-03-06T09:03:10.489Z,6.97
2018-03-06T09:03:36.195Z,6.93
2018-03-06T09:04:01.677Z,7
2018-03-06T09:04:27.196Z,6.99
2018-03-06T09:04:52.861Z,7.03
2018-03-06T09:06:01.629Z,6.97
2018-03-06T09:06:27.131Z,7.06
2018-03-06T09:06:52.626Z,7.13
2018-03-06T09:07:18.167Z,7.07
2018-03-06T09:07:43.695Z,7.14
2018-03-06T09:08:09.225Z,7.1
2018-03-06T09:08:34.728Z,7.13
2018-03-06T09:09:00.245Z,7.14
2018-03-06T09:09:25.745Z,7.15
2018-03-06T09:09:51.315Z,7.23
2018-03-06T09:10:16.806Z,7.11
2018-03-06T09:10:42.311Z,7.29
2018-03-06T09:11:07.747Z,7.29
2018-03-06T09:11:33.261Z,7.31
2018-03-06T09:11:58.796Z,7.36
2018-03-06T09:12:24.300Z,7.36
2018-03-06T09:12:49.767Z,7.42
2018-03-06T09:13:15.361Z,7.38
2018-03-06T09:13:40.846Z,7.43
2018-03-06T09:14:06.311Z,7.48
2018-03-06T09:14:31.764Z,7.53
2018-03-06T09:14:57.245Z,7.47
2018-03-06T09:15:22.750Z,7.48
2018-03-06T09:15:48.298Z,7.5
2018-03-06T09:16:13.787Z,7.56
2018-03-06T09:16:39.269Z,7.48
2018-03-06T09:17:04.735Z,7.53
2018-03-06T09:17:30.271Z,7.56
2018-03-06T09:17:55.770Z,7.63
2018-03-06T09:18:21.202Z,7.63
2018-03-06T09:18:46.672Z,7.72
2018-03-06T09:19:12.164Z,7.67
2018-03-06T09:19:37.643Z,7.75
2018-03-06T09:20:03.111Z,7.69
2018-03-06T09:21:01.662Z,7.66
2018-03-06T09:21:27.176Z,7.63
2018-03-06T09:21:52.627Z,7.77
2018-03-06T09:22:18.142Z,7.76
2018-03-06T09:22:43.603Z,7.82
2018-03-06T09:23:09.007Z,7.8
2018-03-06T09:23:34.485Z,7.79
2018-03-06T09:23:59.999Z,7.94
2018-03-06T09:24:25.579Z,7.9
2018-03-06T09:24:51.037Z,7.91
2018-03-06T09:25:16.523Z,7.94
2018-03-06T09:25:41.961Z,7.98
2018-03-06T09:26:07.482Z,8
2018-03-06T09:26:32.946Z,8.05
2018-03-06T09:26:58.405Z,8.13
2018-03-06T09:27:23.880Z,8.12
2018-03-06T09:27:49.359Z,8.13
2018-03-06T09:28:14.979Z,8.13
2018-03-06T09:28:40.415Z,8.1
2018-03-06T09:29:05.921Z,8.13
2018-03-06T09:29:31.376Z,8.16
2018-03-06T09:29:56.845Z,8.1
2018-03-06T09:30:22.358Z,8.18
2018-03-06T09:30:47.821Z,8.13
2018-03-06T09:31:13.297Z,8.15
2018-03-06T09:31:38.882Z,8.18
2018-03-06T09:32:04.254Z,8.19
2018-03-06T09:32:29.721Z,8.23
2018-03-06T09:32:55.316Z,8.27
2018-03-06T09:33:20.798Z,8.24
2018-03-06T09:33:46.270Z,8.33
2018-03-06T09:34:11.880Z,8.34
2018-03-06T09:34:37.362Z,8.36
2018-03-06T09:35:02.803Z,8.44
2018-03-06T09:35:28.339Z,8.33
2018-03-06T09:35:53.753Z,8.46
2018-03-06T09:36:19.269Z,8.45
2018-03-06T09:36:44.735Z,8.48
2018-03-06T09:37:10.190Z,8.51
2018-03-06T09:37:35.703Z,8.45
2018-03-06T09:38:01.246Z,8.48
2018-03-06T09:38:26.766Z,8.46
2018-03-06T09:38:52.235Z,8.46
2018-03-06T09:39:17.729Z,8.48
2018-03-06T09:39:43.259Z,8.52
2018-03-06T09:40:08.706Z,8.51
2018-03-06T09:40:34.219Z,8.51
2018-03-06T09:40:59.750Z,8.48
2018-03-06T09:41:25.252Z,8.46
2018-03-06T09:41:50.778Z,8.48
2018-03-06T09:42:16.266Z,8.56
2018-03-06T09:42:41.730Z,8.53
2018-03-06T09:43:07.282Z,8.58
2018-03-06T09:43:32.718Z,8.58
2018-03-06T09:43:58.178Z,8.56
2018-03-06T09:44:23.710Z,8.58
2018-03-06T09:44:49.244Z,8.55
2018-03-06T09:45:14.728Z,8.55
2018-03-06T09:45:40.230Z,8.55
2018-03-06T09:46:05.708Z,8.67
2018-03-06T09:46:31.224Z,8.6
2018-03-06T09:46:56.686Z,8.56
2018-03-06T09:47:22.183Z,8.58
2018-03-06T09:47:47.640Z,8.67
2018-03-06T09:48:13.119Z,8.73
2018-03-06T09:48:38.581Z,8.79
2018-03-06T09:49:04.209Z,8.7
2018-03-06T09:49:29.577Z,8.76
2018-03-06T09:49:55.064Z,8.74
2018-03-06T09:50:20.547Z,8.74
2018-03-06T09:50:46.033Z,8.84
2018-03-06T09:51:11.580Z,8.87
2018-03-06T09:51:37.061Z,8.89
2018-03-06T09:52:02.494Z,8.91
2018-03-06T09:52:27.956Z,8.89
2018-03-06T09:52:53.408Z,8.85
2018-03-06T09:53:18.884Z,8.81
2018-03-06T09:53:44.310Z,8.79
2018-03-06T09:54:09.844Z,8.99
2018-03-06T09:54:35.322Z,8.82
2018-03-06T09:55:00.844Z,8.84
2018-03-06T09:55:26.311Z,8.79
2018-03-06T09:55:51.801Z,8.78
2018-03-06T09:56:17.277Z,8.84
2018-03-06T09:56:42.729Z,8.82
2018-03-06T09:57:08.235Z,8.84
2018-03-06T09:58:16.930Z,8.87
2018-03-06T09:58:42.442Z,8.92
2018-03-06T09:59:07.918Z,8.92
2018-03-06T09:59:33.439Z,8.89
2018-03-06T09:59:58.919Z,8.91
2018-03-06T10:00:24.393Z,8.94
2018-03-06T10:00:49.882Z,8.91
2018-03-06T10:01:15.353Z,9
2018-03-06T10:01:40.824Z,9.02
2018-03-06T10:02:06.309Z,8.95
2018-03-06T10:02:31.760Z,8.91
2018-03-06T10:02:57.253Z,9.08
2018-03-06T10:03:22.736Z,8.95
2018-03-06T10:03:48.233Z,9.03
2018-03-06T10:04:41.657Z,9.03
2018-03-06T10:05:07.180Z,9.06
2018-03-06T10:05:32.651Z,9.13
2018-03-06T10:05:58.149Z,9.21
2018-03-06T10:06:23.623Z,9.13
2018-03-06T10:06:49.104Z,9.22
2018-03-06T10:07:14.617Z,9.18
2018-03-06T10:07:40.065Z,9.22
2018-03-06T10:08:43.670Z,9.26
2018-03-06T10:09:09.176Z,9.34
2018-03-06T10:09:34.706Z,9.37
2018-03-06T10:10:00.132Z,9.29
2018-03-06T10:10:25.619Z,9.32
2018-03-06T10:10:51.082Z,9.34
2018-03-06T10:11:16.575Z,9.32
2018-03-06T10:11:42.077Z,9.41
2018-03-06T10:12:07.546Z,9.37
2018-03-06T10:12:33.057Z,9.36
2018-03-06T10:13:41.810Z,9.43
2018-03-06T10:14:07.261Z,9.46
2018-03-06T10:14:32.778Z,9.46
2018-03-06T10:14:58.249Z,9.43
2018-03-06T10:15:56.821Z,9.43
2018-03-06T10:16:22.317Z,9.41
2018-03-06T10:16:47.825Z,9.41
2018-03-06T10:17:13.321Z,9.47
2018-03-06T10:17:38.821Z,9.41
2018-03-06T10:18:04.335Z,9.39
2018-03-06T10:18:29.944Z,9.46
2018-03-06T10:18:55.368Z,9.47
2018-03-06T10:19:20.863Z,9.48
2018-03-06T10:19:46.320Z,9.5
2018-03-06T10:20:11.796Z,9.61
2018-03-06T10:20:37.227Z,9.61
2018-03-06T10:21:35.750Z,9.64
2018-03-06T10:22:01.222Z,9.69
2018-03-06T10:22:26.756Z,9.68
2018-03-06T10:22:52.266Z,9.68
2018-03-06T10:23:17.711Z,9.66
2018-03-06T10:23:43.191Z,9.66
2018-03-06T10:24:08.679Z,9.66
2018-03-06T10:24:34.235Z,9.77
2018-03-06T10:24:59.740Z,9.74
2018-03-06T10:25:25.233Z,9.8
2018-03-06T10:25:50.712Z,9.84
2018-03-06T10:26:16.206Z,9.79
2018-03-06T10:26:41.726Z,9.79
2018-03-06T10:27:07.218Z,9.86
2018-03-06T10:27:32.703Z,9.92
2018-03-06T10:27:58.168Z,9.87
2018-03-06T10:28:23.624Z,9.86
2018-03-06T10:28:49.125Z,9.87
2018-03-06T10:29:14.603Z,9.87
2018-03-06T10:29:40.094Z,9.94
2018-03-06T10:30:05.578Z,9.98
2018-03-06T10:30:31.023Z,9.99
2018-03-06T10:30:56.633Z,10.04
2018-03-06T10:31:22.095Z,10.01
2018-03-06T10:31:47.561Z,9.99
2018-03-06T10:32:13.080Z,9.98
2018-03-06T10:32:38.557Z,9.99
2018-03-06T10:33:04.104Z,10.02
2018-03-06T10:33:29.592Z,9.98
2018-03-06T10:33:55.093Z,10.02
2018-03-06T10:34:20.630Z,9.97
2018-03-06T10:34:46.175Z,9.99
2018-03-06T10:35:11.672Z,10.01
2018-03-06T10:35:37.155Z,10.05
2018-03-06T10:36:02.648Z,10.02
2018-03-06T10:36:28.179Z,10.07
2018-03-06T10:36:53.617Z,10.05
2018-03-06T10:37:19.092Z,10.1
2018-03-06T10:38:17.629Z,10.09
2018-03-06T10:38:43.181Z,10.1
2018-03-06T10:39:08.671Z,10.12
2018-03-06T10:39:34.183Z,10.09
2018-03-06T10:39:59.659Z,10.13
2018-03-06T10:40:25.141Z,10.12
2018-03-06T10:40:50.634Z,10.05
2018-03-06T10:41:16.127Z,10.13
2018-03-06T10:41:41.598Z,10.09
2018-03-06T10:42:07.065Z,10.15
2018-03-06T10:42:32.560Z,10.26
2018-03-06T10:42:58.013Z,10.19
2018-03-06T10:43:23.513Z,10.15
2018-03-06T10:43:49.034Z,10.17
2018-03-06T10:44:14.497Z,10.16
2018-03-06T10:44:39.960Z,10.15
2018-03-06T10:45:05.494Z,10.31
2018-03-06T10:45:30.976Z,10.23
2018-03-06T10:45:56.433Z,10.2
2018-03-06T10:46:21.895Z,10.25
2018-03-06T10:46:47.355Z,10.25
2018-03-06T10:47:12.849Z,10.22
2018-03-06T10:47:38.349Z,10.3
2018-03-06T10:48:03.860Z,10.3
2018-03-06T10:48:29.370Z,10.23
2018-03-06T10:48:54.862Z,10.28
2018-03-06T10:49:20.328Z,10.19
2018-03-06T10:49:45.794Z,10.26
2018-03-06T10:50:11.263Z,10.31
2018-03-06T10:50:36.742Z,10.2